Sacramento, California
Traffic Map
Current Weather Conditions
Sacramento, California
Overcast Moderate Rain
Overcast
58°
Feels Like: 58°
Wind Chill: 58° Ceiling: 1800
Heat Index: 58° Visibility: 2mi
Dew Point: 58° Wind: 10mph
Humidity: 100% Direction: 160° (SSE)
Pressure: 30.07in Gusts: 18mph
Raw Report DataKSAC 101556Z 16009G16KT 2SM RA BR OVC018 14/14 A3007 RMK AO2 P0001 T01440144
Traffic Incident Summary
Active as of:
Severity:
Category:
InformationThere was an issue retrieving the traffic information for this location. Please try a different location or try again shortly.
Advertisements
Track Severe Weather on mobile